createdAt,value
2022-08-31T00:01:13.955Z,98463.44
2022-08-31T00:03:58.630Z,98463.56
2022-08-31T00:06:28.061Z,98470.19
2022-08-31T00:08:57.860Z,98460.13
2022-08-31T00:11:34.345Z,98467.44
2022-08-31T00:14:09.301Z,98464.94
2022-08-31T00:16:45.591Z,98460.34
2022-08-31T00:19:15.890Z,98462.44
2022-08-31T00:21:45.537Z,98467.13
2022-08-31T00:24:15.049Z,98464.50
2022-08-31T00:26:44.553Z,98460.84
2022-08-31T00:29:14.936Z,98453.16
2022-08-31T00:31:44.527Z,98459.22
2022-08-31T00:34:13.951Z,98446.06
2022-08-31T00:36:43.459Z,98457.53
2022-08-31T00:39:13.313Z,98454.53
2022-08-31T00:41:43.750Z,98460.03
2022-08-31T00:44:13.174Z,98464.41
2022-08-31T00:46:44.567Z,98452.72
2022-08-31T00:49:23.047Z,98454.91
2022-08-31T00:51:55.817Z,98461.78
2022-08-31T00:54:33.264Z,98456.94
2022-08-31T00:57:04.379Z,98458.78
2022-08-31T00:59:34.649Z,98459.47
2022-08-31T01:02:04.694Z,98457.63
2022-08-31T01:04:34.826Z,98452.63
2022-08-31T01:07:08.274Z,98460.25
2022-08-31T01:09:43.529Z,98459.38
2022-08-31T01:12:27.661Z,98458.88
2022-08-31T01:14:59.718Z,98464.50
2022-08-31T01:17:32.689Z,98459.91
2022-08-31T01:20:36.319Z,98460.03
2022-08-31T01:23:15.568Z,98454.41
2022-08-31T01:25:48.671Z,98458.28
2022-08-31T01:28:18.128Z,98454.53
2022-08-31T01:31:04.239Z,98450.75
2022-08-31T01:33:37.828Z,98442.97
2022-08-31T01:36:15.871Z,98455.25
2022-08-31T01:38:47.010Z,98441.72
2022-08-31T01:41:23.206Z,98442.53
2022-08-31T01:43:53.196Z,98454.19
2022-08-31T01:46:23.225Z,98457.19
2022-08-31T01:48:52.746Z,98448.47
2022-08-31T01:51:22.964Z,98448.69
2022-08-31T01:53:54.758Z,98454.19
2022-08-31T01:56:32.228Z,98459.47
2022-08-31T01:59:08.417Z,98448.16
2022-08-31T02:02:07.511Z,98460.84
2022-08-31T02:04:39.803Z,98459.00
2022-08-31T02:07:11.963Z,98457.88
2022-08-31T02:09:41.360Z,98463.25
2022-08-31T02:12:12.838Z,98459.81
2022-08-31T02:14:42.310Z,98462.09
2022-08-31T02:17:11.867Z,98458.78
2022-08-31T02:19:41.799Z,98463.56
2022-08-31T02:22:11.182Z,98456.25
2022-08-31T02:24:40.531Z,98462.19
2022-08-31T02:27:09.942Z,98455.50
2022-08-31T02:29:39.924Z,98451.38
2022-08-31T02:32:09.372Z,98446.13
2022-08-31T02:34:50.526Z,98455.16
2022-08-31T02:37:20.993Z,98451.09
2022-08-31T02:39:51.077Z,98442.59
2022-08-31T02:42:23.029Z,98437.75
2022-08-31T02:44:52.889Z,98455.97
2022-08-31T02:47:22.186Z,98441.53
2022-08-31T02:50:14.309Z,98441.25
2022-08-31T02:52:46.830Z,98437.28
2022-08-31T02:55:18.007Z,98443.59
2022-08-31T02:57:52.183Z,98439.34
2022-08-31T03:00:24.468Z,98438.78
2022-08-31T03:02:55.003Z,98448.75
2022-08-31T03:05:25.684Z,98453.47
2022-08-31T03:07:55.324Z,98450.72
2022-08-31T03:10:26.436Z,98446.19
2022-08-31T03:12:56.304Z,98442.41
2022-08-31T03:15:28.622Z,98437.03
2022-08-31T03:17:58.156Z,98434.53
2022-08-31T03:20:28.593Z,98445.91
2022-08-31T03:22:59.501Z,98451.06
2022-08-31T03:25:29.279Z,98442.50
2022-08-31T03:27:59.084Z,98447.75
2022-08-31T03:30:29.938Z,98453.81
2022-08-31T03:33:12.944Z,98453.03
2022-08-31T03:35:44.844Z,98460.56
2022-08-31T03:38:16.113Z,98461.72
2022-08-31T03:40:46.686Z,98468.91
2022-08-31T03:43:19.213Z,98465.59
2022-08-31T03:45:49.768Z,98463.16
2022-08-31T03:48:19.808Z,98460.63
2022-08-31T03:50:49.462Z,98462.22
2022-08-31T03:53:25.587Z,98453.44
2022-08-31T03:56:01.888Z,98459.25
2022-08-31T03:58:33.065Z,98454.69
2022-08-31T04:01:03.709Z,98451.63
2022-08-31T04:03:51.465Z,98459.53
2022-08-31T04:06:42.499Z,98456.78
2022-08-31T04:09:30.311Z,98456.66
2022-08-31T04:12:28.731Z,98464.19
2022-08-31T04:15:19.300Z,98465.88
2022-08-31T04:18:07.500Z,98457.75
2022-08-31T04:20:46.968Z,98462.31
2022-08-31T04:23:16.381Z,98456.72
2022-08-31T04:25:52.378Z,98459.13
2022-08-31T04:28:21.862Z,98459.13
2022-08-31T04:30:53.565Z,98457.97
2022-08-31T04:33:23.236Z,98461.88
2022-08-31T04:35:52.592Z,98460.03
2022-08-31T04:38:22.162Z,98462.81
2022-08-31T04:40:52.483Z,98461.38
2022-08-31T04:43:24.823Z,98463.66
2022-08-31T04:45:54.249Z,98472.31
2022-08-31T04:48:24.241Z,98460.69
2022-08-31T04:51:04.957Z,98472.25
2022-08-31T04:53:36.457Z,98471.22
2022-08-31T04:56:19.903Z,98471.75
2022-08-31T04:58:56.114Z,98472.25
2022-08-31T05:01:36.319Z,98470.59
2022-08-31T05:04:18.647Z,98464.25
2022-08-31T05:06:49.259Z,98471.63
2022-08-31T05:09:23.053Z,98470.00
2022-08-31T05:11:55.983Z,98472.53
2022-08-31T05:14:26.430Z,98472.25
2022-08-31T05:17:06.376Z,98476.56
2022-08-31T05:19:44.462Z,98471.78
2022-08-31T05:22:16.758Z,98467.97
2022-08-31T05:24:48.214Z,98470.81
2022-08-31T05:27:17.509Z,98474.19
2022-08-31T05:29:47.719Z,98479.25
2022-08-31T05:32:46.549Z,98480.78
2022-08-31T05:35:16.979Z,98480.59
2022-08-31T05:37:51.692Z,98474.38
2022-08-31T05:40:22.494Z,98470.00
2022-08-31T05:42:51.976Z,98473.03
2022-08-31T05:45:21.705Z,98464.63
2022-08-31T05:47:51.016Z,98472.41
2022-08-31T05:50:20.494Z,98471.94
2022-08-31T05:52:50.563Z,98479.41
2022-08-31T05:55:19.942Z,98480.31
2022-08-31T05:57:49.202Z,98479.28
2022-08-31T06:00:19.386Z,98480.91
2022-08-31T06:02:55.905Z,98477.28
2022-08-31T06:05:25.862Z,98485.06
2022-08-31T06:07:55.283Z,98487.50
2022-08-31T06:10:25.354Z,98492.31
2022-08-31T06:12:54.861Z,98488.66
2022-08-31T06:15:24.873Z,98490.31
2022-08-31T06:17:54.450Z,98490.06
2022-08-31T06:20:25.787Z,98483.38
2022-08-31T06:22:56.292Z,98495.03
2022-08-31T06:25:36.821Z,98496.88
2022-08-31T06:28:07.488Z,98490.28
2022-08-31T06:30:54.471Z,98487.69
2022-08-31T06:33:24.809Z,98487.47
2022-08-31T06:36:15.005Z,98487.78
2022-08-31T06:39:07.561Z,98485.16
2022-08-31T06:41:44.451Z,98479.06
2022-08-31T06:44:43.334Z,98485.47
2022-08-31T06:47:24.008Z,98485.16
2022-08-31T06:49:54.057Z,98478.25
2022-08-31T06:52:24.619Z,98485.69
2022-08-31T06:55:09.629Z,98482.53
2022-08-31T06:57:57.387Z,98482.53
2022-08-31T07:00:45.764Z,98489.16
2022-08-31T07:03:46.416Z,98497.41
2022-08-31T07:06:24.403Z,98490.75
2022-08-31T07:09:00.660Z,98484.59
2022-08-31T07:11:44.526Z,98493.34
2022-08-31T07:14:19.087Z,98494.84
2022-08-31T07:16:49.562Z,98492.66
2022-08-31T07:19:20.517Z,98477.38
2022-08-31T07:22:00.291Z,98478.38
2022-08-31T07:24:35.253Z,98486.56
2022-08-31T07:27:13.053Z,98483.59
2022-08-31T07:29:50.619Z,98487.31
2022-08-31T07:32:21.191Z,98481.59
2022-08-31T07:34:58.460Z,98493.84
2022-08-31T07:37:59.843Z,98491.13
2022-08-31T07:40:51.145Z,98489.44
2022-08-31T07:43:22.605Z,98481.88
2022-08-31T07:45:52.710Z,98478.94
2022-08-31T07:48:27.467Z,98478.44
2022-08-31T07:51:15.092Z,98472.31
2022-08-31T07:54:04.765Z,98480.84
2022-08-31T07:56:43.321Z,98486.38
2022-08-31T07:59:15.237Z,98480.53
2022-08-31T08:01:48.513Z,98477.41
2022-08-31T08:04:21.930Z,98474.91
2022-08-31T08:07:12.132Z,98474.13
2022-08-31T08:09:59.353Z,98473.44
2022-08-31T08:12:51.211Z,98468.66
2022-08-31T08:15:36.237Z,98464.72
2022-08-31T08:18:21.360Z,98468.94
2022-08-31T08:20:55.558Z,98470.06
2022-08-31T08:23:27.826Z,98461.34
2022-08-31T08:26:37.334Z,98466.00
2022-08-31T08:29:40.555Z,98461.38
2022-08-31T08:32:17.378Z,98462.09
2022-08-31T08:34:47.414Z,98461.16
2022-08-31T08:37:17.140Z,98459.03
2022-08-31T08:39:47.998Z,98459.47
2022-08-31T08:42:24.175Z,98458.91
2022-08-31T08:44:53.699Z,98454.41
2022-08-31T08:47:38.295Z,98448.75
2022-08-31T08:50:10.694Z,98451.97
2022-08-31T08:52:47.160Z,98440.63
2022-08-31T08:55:35.043Z,98438.69
2022-08-31T08:58:13.544Z,98430.00
2022-08-31T09:00:55.132Z,98425.66
2022-08-31T09:04:06.240Z,98426.78
2022-08-31T09:07:23.609Z,98419.53
2022-08-31T09:10:25.597Z,98412.81
2022-08-31T09:13:01.759Z,98406.91
2022-08-31T09:15:40.267Z,98404.75
2022-08-31T09:18:34.482Z,98409.53
2022-08-31T09:21:34.480Z,98399.06
2022-08-31T09:24:17.107Z,98397.97
2022-08-31T09:27:11.430Z,98394.97
2022-08-31T09:29:45.082Z,98387.16
2022-08-31T09:32:24.854Z,98384.41
2022-08-31T09:35:09.206Z,98384.81
2022-08-31T09:37:46.282Z,98383.50
2022-08-31T09:40:43.135Z,98374.00
2022-08-31T09:43:31.477Z,98375.09
2022-08-31T09:46:11.868Z,98380.56
2022-08-31T09:48:56.428Z,98369.41
2022-08-31T09:51:30.413Z,98364.06
2022-08-31T09:54:46.535Z,98361.59
2022-08-31T09:57:17.625Z,98358.06
2022-08-31T09:59:51.678Z,98365.00
2022-08-31T10:02:26.244Z,98368.47
2022-08-31T10:05:06.785Z,98360.66
2022-08-31T10:07:49.073Z,98359.78
2022-08-31T10:10:32.719Z,98353.56
2022-08-31T10:13:18.135Z,98354.56
2022-08-31T10:15:59.566Z,98350.31
2022-08-31T10:18:56.193Z,98341.09
2022-08-31T10:21:55.116Z,98342.19
2022-08-31T10:24:50.549Z,98335.97
2022-08-31T10:27:31.597Z,98333.75
2022-08-31T10:30:24.617Z,98330.81
2022-08-31T10:33:14.991Z,98322.09
2022-08-31T10:35:50.227Z,98317.75
2022-08-31T10:38:36.637Z,98318.66
2022-08-31T10:41:30.731Z,98313.19
2022-08-31T10:44:28.750Z,98307.72
2022-08-31T10:47:02.845Z,98309.63
2022-08-31T10:49:35.464Z,98303.34
2022-08-31T10:52:29.502Z,98307.16
2022-08-31T10:55:23.737Z,98290.63
2022-08-31T10:58:40.219Z,98282.75
2022-08-31T11:01:28.817Z,98282.25
2022-08-31T11:04:45.362Z,98287.72
2022-08-31T11:07:42.150Z,98274.91
2022-08-31T11:10:57.134Z,98278.28
2022-08-31T11:14:08.154Z,98278.13
2022-08-31T11:17:32.318Z,98271.47
2022-08-31T11:20:43.627Z,98259.81
2022-08-31T11:23:45.030Z,98260.78
2022-08-31T11:26:57.787Z,98254.91
2022-08-31T11:29:43.316Z,98256.13
2022-08-31T11:32:39.790Z,98251.47
2022-08-31T11:35:10.774Z,98251.72
2022-08-31T11:37:56.082Z,98249.31
2022-08-31T11:40:44.137Z,98253.78
2022-08-31T11:43:36.677Z,98252.63
2022-08-31T11:46:27.167Z,98249.31
2022-08-31T11:48:56.536Z,98254.53
2022-08-31T11:51:45.962Z,98256.22
2022-08-31T11:54:45.341Z,98255.41
2022-08-31T11:57:24.557Z,98256.38
2022-08-31T11:59:56.099Z,98261.00
2022-08-31T12:02:26.148Z,98260.06
2022-08-31T12:05:43.485Z,98264.72
2022-08-31T12:08:15.444Z,98272.19
2022-08-31T12:11:42.660Z,98273.00
2022-08-31T12:14:36.661Z,98268.59
2022-08-31T12:17:17.105Z,98275.69
2022-08-31T12:20:07.776Z,98274.34
2022-08-31T12:23:30.954Z,98277.19
2022-08-31T12:26:25.547Z,98274.59
2022-08-31T12:28:54.730Z,98269.69
2022-08-31T12:31:24.890Z,98264.22
2022-08-31T12:34:24.660Z,98264.78
2022-08-31T12:36:54.134Z,98261.88
2022-08-31T12:39:27.603Z,98261.94
2022-08-31T12:42:03.107Z,98257.31
2022-08-31T12:44:49.971Z,98257.16
2022-08-31T12:47:44.560Z,98258.00
2022-08-31T12:50:35.454Z,98252.56
2022-08-31T12:53:36.757Z,98252.13
2022-08-31T12:56:46.205Z,98252.00
2022-08-31T13:00:00.601Z,98245.63
2022-08-31T13:02:38.179Z,98239.91
2022-08-31T13:05:32.260Z,98242.31
2022-08-31T13:08:18.479Z,98243.78
2022-08-31T13:10:47.850Z,98241.66
2022-08-31T13:13:29.642Z,98244.50
2022-08-31T13:16:07.993Z,98231.25
2022-08-31T13:18:37.327Z,98226.19
2022-08-31T13:21:07.423Z,98226.16
2022-08-31T13:23:48.205Z,98230.06
2022-08-31T13:26:25.078Z,98233.53
2022-08-31T13:29:04.888Z,98243.91
2022-08-31T13:31:47.037Z,98245.00
2022-08-31T13:34:19.210Z,98239.47
2022-08-31T13:36:55.043Z,98245.78
2022-08-31T13:39:35.169Z,98250.94
2022-08-31T13:42:23.097Z,98250.66
2022-08-31T13:44:58.309Z,98250.69
2022-08-31T13:47:48.592Z,98256.84
2022-08-31T13:50:52.623Z,98237.25
2022-08-31T13:54:04.851Z,98244.97
2022-08-31T13:56:58.885Z,98253.59
2022-08-31T13:59:38.999Z,98251.56
2022-08-31T14:02:19.419Z,98253.66
2022-08-31T14:05:03.423Z,98255.28
2022-08-31T14:07:46.796Z,98242.44
2022-08-31T14:10:27.433Z,98246.00
2022-08-31T14:13:00.332Z,98249.31
2022-08-31T14:15:53.600Z,98247.25
2022-08-31T14:18:43.306Z,98252.75
2022-08-31T14:21:21.855Z,98244.66
2022-08-31T14:24:01.436Z,98260.69
2022-08-31T14:26:37.078Z,98246.66
2022-08-31T14:29:13.685Z,98250.91
2022-08-31T14:31:49.323Z,98252.50
2022-08-31T14:34:30.458Z,98249.69
2022-08-31T14:37:08.102Z,98253.75
2022-08-31T14:39:50.665Z,98259.00
2022-08-31T14:42:26.599Z,98255.44
2022-08-31T14:45:18.481Z,98256.34
2022-08-31T14:47:52.434Z,98259.19
2022-08-31T14:50:26.391Z,98258.22
2022-08-31T14:52:57.556Z,98259.91
2022-08-31T14:55:30.014Z,98252.09
2022-08-31T14:58:12.018Z,98258.03
2022-08-31T15:00:53.207Z,98261.06
2022-08-31T15:03:24.693Z,98257.53
2022-08-31T15:05:54.551Z,98259.00
2022-08-31T15:08:38.457Z,98254.84
2022-08-31T15:11:08.704Z,98262.31
2022-08-31T15:13:39.510Z,98264.47
2022-08-31T15:16:14.845Z,98259.47
2022-08-31T15:18:44.961Z,98256.25
2022-08-31T15:21:17.219Z,98255.03
2022-08-31T15:23:48.346Z,98251.84
2022-08-31T15:26:21.547Z,98258.47
2022-08-31T15:28:52.651Z,98252.34
2022-08-31T15:31:28.038Z,98256.19
2022-08-31T15:33:59.962Z,98252.78
2022-08-31T15:36:29.469Z,98254.75
2022-08-31T15:38:59.040Z,98258.06
2022-08-31T15:41:29.357Z,98250.22
2022-08-31T15:43:58.792Z,98251.66
2022-08-31T15:46:46.282Z,98252.31
2022-08-31T15:49:15.577Z,98259.63
2022-08-31T15:51:50.344Z,98254.19
2022-08-31T15:54:27.346Z,98250.34
2022-08-31T15:56:58.278Z,98243.97
2022-08-31T15:59:27.610Z,98247.75
2022-08-31T16:01:56.972Z,98246.66
2022-08-31T16:04:26.410Z,98241.28
2022-08-31T16:06:56.811Z,98240.72
2022-08-31T16:09:26.236Z,98243.84
2022-08-31T16:12:00.341Z,98233.44
2022-08-31T16:14:30.267Z,98229.47
2022-08-31T16:16:59.882Z,98235.81
2022-08-31T16:19:35.426Z,98236.81
2022-08-31T16:22:08.598Z,98235.22
2022-08-31T16:24:39.234Z,98232.13
2022-08-31T16:27:16.207Z,98237.66
2022-08-31T16:29:47.689Z,98237.25
2022-08-31T16:32:17.955Z,98242.75
2022-08-31T16:34:47.319Z,98246.09
2022-08-31T16:37:16.839Z,98246.19
2022-08-31T16:39:47.231Z,98250.06
2022-08-31T16:42:17.769Z,98250.66
2022-08-31T16:44:47.958Z,98249.66
2022-08-31T16:47:19.290Z,98256.09
2022-08-31T16:49:48.716Z,98254.53
2022-08-31T16:52:26.772Z,98253.56
2022-08-31T16:54:57.594Z,98245.94
2022-08-31T16:57:30.253Z,98257.91
2022-08-31T17:00:00.142Z,98246.78
2022-08-31T17:02:29.830Z,98259.53
2022-08-31T17:05:04.584Z,98259.28
2022-08-31T17:07:34.015Z,98255.09
2022-08-31T17:10:07.156Z,98257.53
2022-08-31T17:12:38.327Z,98265.53
2022-08-31T17:15:09.917Z,98261.06
2022-08-31T17:17:39.807Z,98261.91
2022-08-31T17:20:13.245Z,98268.84
2022-08-31T17:22:48.600Z,98268.88
2022-08-31T17:25:18.725Z,98275.03
2022-08-31T17:27:48.187Z,98274.53
2022-08-31T17:30:20.971Z,98278.78
2022-08-31T17:32:50.327Z,98281.72
2022-08-31T17:35:19.760Z,98288.09
2022-08-31T17:37:50.097Z,98283.06
2022-08-31T17:40:19.867Z,98287.59
2022-08-31T17:42:50.186Z,98284.41
2022-08-31T17:45:21.331Z,98281.22
2022-08-31T17:47:51.051Z,98292.91
2022-08-31T17:50:21.357Z,98296.63
2022-08-31T17:52:50.838Z,98295.03
2022-08-31T17:55:20.338Z,98302.47
2022-08-31T17:57:49.757Z,98304.06
2022-08-31T18:00:19.384Z,98314.41
2022-08-31T18:02:49.651Z,98313.88
2022-08-31T18:05:19.313Z,98314.16
2022-08-31T18:07:50.869Z,98315.72
2022-08-31T18:10:23.008Z,98300.88
2022-08-31T18:12:52.344Z,98311.50
2022-08-31T18:15:21.689Z,98306.72
2022-08-31T18:17:50.989Z,98310.97
2022-08-31T18:20:20.675Z,98310.69
2022-08-31T18:22:52.445Z,98313.59
2022-08-31T18:25:21.995Z,98308.84
2022-08-31T18:27:51.398Z,98317.34
2022-08-31T18:30:21.103Z,98316.81
2022-08-31T18:32:51.304Z,98318.66
2022-08-31T18:35:20.627Z,98316.28
2022-08-31T18:37:49.916Z,98319.47
2022-08-31T18:40:37.529Z,98322.91
2022-08-31T18:43:25.307Z,98323.19
2022-08-31T18:45:54.881Z,98322.91
2022-08-31T18:48:26.326Z,98329.00
2022-08-31T18:50:59.138Z,98329.81
2022-08-31T18:53:32.521Z,98327.41
2022-08-31T18:56:11.809Z,98326.09
2022-08-31T18:58:45.116Z,98331.66
2022-08-31T19:01:15.783Z,98326.88
2022-08-31T19:03:45.960Z,98331.66
2022-08-31T19:06:23.722Z,98341.47
2022-08-31T19:08:53.611Z,98339.09
2022-08-31T19:11:24.039Z,98341.75
2022-08-31T19:13:54.305Z,98335.38
2022-08-31T19:16:28.409Z,98339.06
2022-08-31T19:18:58.925Z,98342.28
2022-08-31T19:21:32.753Z,98341.47
2022-08-31T19:24:07.385Z,98335.34
2022-08-31T19:26:53.210Z,98343.03
2022-08-31T19:29:27.857Z,98334.25
2022-08-31T19:32:00.292Z,98345.94
2022-08-31T19:34:34.190Z,98341.69
2022-08-31T19:37:07.748Z,98332.66
2022-08-31T19:39:37.531Z,98341.69
2022-08-31T19:42:08.873Z,98333.72
2022-08-31T19:45:22.830Z,98338.47
2022-08-31T19:47:32.200Z,98348.25
2022-08-31T19:50:02.121Z,98340.59
2022-08-31T19:52:36.232Z,98345.91
2022-08-31T19:55:10.403Z,98339.00
2022-08-31T19:57:43.382Z,98335.28
2022-08-31T20:00:13.538Z,98331.84
2022-08-31T20:02:44.815Z,98332.09
2022-08-31T20:05:17.618Z,98345.09
2022-08-31T20:07:47.279Z,98336.88
2022-08-31T20:10:19.202Z,98331.00
2022-08-31T20:12:48.511Z,98339.25
2022-08-31T20:15:21.982Z,98336.84
2022-08-31T20:17:57.363Z,98336.56
2022-08-31T20:20:29.028Z,98332.56
2022-08-31T20:22:58.788Z,98342.38
2022-08-31T20:25:28.148Z,98341.88
2022-08-31T20:27:59.551Z,98339.72
2022-08-31T20:30:28.894Z,98336.81
2022-08-31T20:32:58.252Z,98335.22
2022-08-31T20:35:33.745Z,98342.66
2022-08-31T20:38:03.142Z,98333.66
2022-08-31T20:40:33.582Z,98334.72
2022-08-31T20:43:08.637Z,98338.41
2022-08-31T20:45:40.360Z,98341.88
2022-08-31T20:48:29.314Z,98342.13
2022-08-31T20:51:16.168Z,98342.13
2022-08-31T20:53:48.620Z,98343.97
2022-08-31T20:56:18.449Z,98346.88
2022-08-31T20:58:48.447Z,98334.13
2022-08-31T21:01:17.721Z,98330.44
2022-08-31T21:03:47.065Z,98333.63
2022-08-31T21:06:16.348Z,98330.13
2022-08-31T21:08:46.223Z,98335.72
2022-08-31T21:11:19.053Z,98338.63
2022-08-31T21:13:50.115Z,98339.94
2022-08-31T21:16:20.340Z,98342.03
2022-08-31T21:18:50.011Z,98340.97
2022-08-31T21:21:19.305Z,98348.69
2022-08-31T21:23:48.742Z,98352.09
2022-08-31T21:26:25.988Z,98357.94
2022-08-31T21:28:59.887Z,98353.19
2022-08-31T21:31:29.821Z,98356.63
2022-08-31T21:34:02.568Z,98363.53
2022-08-31T21:36:33.917Z,98364.88
2022-08-31T21:39:08.638Z,98365.94
2022-08-31T21:41:39.149Z,98360.09
2022-08-31T21:44:11.907Z,98360.03
2022-08-31T21:46:41.861Z,98364.28
2022-08-31T21:49:11.852Z,98361.13
2022-08-31T21:51:49.746Z,98366.69
2022-08-31T21:54:24.128Z,98368.53
2022-08-31T21:57:00.610Z,98366.38
2022-08-31T21:59:36.210Z,98375.13
2022-08-31T22:02:12.382Z,98370.88
2022-08-31T22:04:44.254Z,98359.75
2022-08-31T22:07:14.539Z,98370.63
2022-08-31T22:09:44.020Z,98355.22
2022-08-31T22:12:15.064Z,98355.53
2022-08-31T22:14:44.998Z,98370.63
2022-08-31T22:17:14.569Z,98358.94
2022-08-31T22:19:43.825Z,98371.13
2022-08-31T22:22:15.167Z,98361.06
2022-08-31T22:24:44.494Z,98366.13
2022-08-31T22:27:13.824Z,98353.63
2022-08-31T22:29:43.246Z,98348.34
2022-08-31T22:32:15.282Z,98354.69
2022-08-31T22:34:46.169Z,98338.75
2022-08-31T22:37:15.618Z,98340.28
2022-08-31T22:39:45.166Z,98334.19
2022-08-31T22:42:15.317Z,98334.19
2022-08-31T22:44:44.765Z,98332.81
2022-08-31T22:47:14.250Z,98333.81
2022-08-31T22:49:43.626Z,98334.78
2022-08-31T22:52:17.095Z,98330.53
2022-08-31T22:54:46.713Z,98334.69
2022-08-31T22:57:16.030Z,98328.28
2022-08-31T22:59:45.320Z,98327.19
2022-08-31T23:02:14.774Z,98322.41
2022-08-31T23:04:44.453Z,98318.16
2022-08-31T23:07:16.404Z,98316.53
2022-08-31T23:09:46.117Z,98321.28
2022-08-31T23:12:15.719Z,98318.63
2022-08-31T23:14:44.989Z,98322.56
2022-08-31T23:17:14.249Z,98311.94
2022-08-31T23:19:43.817Z,98327.00
2022-08-31T23:22:15.137Z,98331.16
2022-08-31T23:24:49.114Z,98334.00
2022-08-31T23:27:22.112Z,98326.28
2022-08-31T23:29:56.590Z,98336.31
2022-08-31T23:32:28.343Z,98341.84
2022-08-31T23:34:58.520Z,98338.97
2022-08-31T23:37:28.061Z,98337.59
2022-08-31T23:39:59.944Z,98344.81
2022-08-31T23:42:29.403Z,98342.66
2022-08-31T23:44:59.055Z,98343.69
2022-08-31T23:47:31.478Z,98342.09
2022-08-31T23:50:04.813Z,98330.13
2022-08-31T23:52:41.583Z,98332.41
2022-08-31T23:55:11.549Z,98329.41
2022-08-31T23:57:41.969Z,98340.91
